Jacobson, MN

11:57 PM CDT on August 19, 2014 (GMT -0500)
Grand Rapids-Itasca County-Newstrom Field | Change Station
CLOSE
Current Station
Airport
Location: Grand Rapids,
Elevation: 1355 ft
Nearby Weather Stations

Elev 1355 ft 47.21 °N, 93.51 °W | Updated 22 minutes ago

Clear
Clear
57 °F
Feels Like 57 °F
N
0
Wind Variable Wind from North

Today
High -- | Low -- °F
--% Chance of Precip.
Yesterday
High -- | Low -- °F
Precip. -- in
6:15 AM 8:16 PM
Waning Crescent, 24% visible
Pressure 29.83 in
Visibility 2.5 miles
Clouds Clear
Dew Point 55 °F
Humidity 94%
Rainfall 0.00 in
Snow Depth Not available.
UV 0 out of 12
Pollen 4.60 out of 12
Air Quality Not available.
Flu Activity Not available.
METAR KGPZ 200435Z AUTO 00000KT 2 1/2SM CLR 14/13 A2983 RMK AO1

More Conditions Fewer Conditions

Pressure 29.83 in
Visibility 2.5 miles
Clouds Clear
Dew Point 55 °F
Humidity 94%
Rainfall 0.00 in
Snow Depth Not available.
UV 0 out of 12
Pollen 4.60 out of 12
Air Quality Not available.
Flu Activity Not available.
METAR KGPZ 200435Z AUTO 00000KT 2 1/2SM CLR 14/13 A2983 RMK AO1

More Conditions Fewer Conditions

10-Day Weather Forecast

Almanac

Astronomy

Aug. 19, 2014 Rise Set
Actual Time 6:15 AM CDT 8:16 PM CDT
Civil Twilight 5:42 AM CDT 8:49 PM CDT
Nautical Twilight 5:02 AM CDT 9:30 PM CDT
Astronomical Twilight 4:17 AM CDT 10:14 PM CDT
Moon 1:01 AM CDT (8/19) 4:20 PM CDT (8/19)
Length of Visible Light 15h 06m
Length of Day
14h 01m
Tomorrow will be 3m 4s shorter.
Waning Crescent, 24% of the Moon is Illuminated
Aug 20
Waning Crescent
Aug 25
New
Sep 2
First Quarter
Sep 8
Full
Sep 15
Last Quarter

Yesterday's Extremes

State Highs State Lows

Community

WunderPhotos

Upload Photos

1,745,585 photos uploaded!

Nearby

Snow Depth

Station Depth Elevation
No new snow has been reported.

Earthquake Activity

City Distance Mag. Time & Date
No recent earthquake activity has been reported nearby.
Minimum magnitude displayed is 2.5.

Coastal Water Temperatures

Place Temperature
No Stations Reporting

Nearby Weather Stations